Panther Forest, Arkansas
Current Conditions -  °F | °C
As of 8:53 PM on Saturday 20 Dec 2014 (Local Time) from KGLH Reporting Station
Clear Clear  
Wind Chill:   Ceiling: Unl
Heat Index:   Visibility: 8mi
Dew Point:   Wind: 6mph
Humidity: 89%   Direction: 10°N
Pressure: 30.22"   Gusts: NA
Location:  33.3324°N, 91.3183°W
Report Text: KGLH 210253Z AUTO 01005KT 8SM CLR 05/03 A3022 RMK AO2 SLP242 T00500033 53006
Loading
Personal Weather Stations






























Interactive Weather Map New forecast layout! Learn more

10-Day Weather Forecast

Advertisements
Track Severe Weather on mobile